Time;durP1;ratioP1;P1;durP2;ratioP2;P2;SDS_P1;SDS_P2;PMS_P1;PMS_P2;Temp;Humidity;BMP_temperature;BMP_pressure;BME280_temperature;BME280_humidity;BME280_pressure;Samples;Min_cycle;Max_cycle;Signal;HPM_P1;HPM_P2
2021/05/12 00:00:48;;;;;;;25.13;22.47;;;16.30;99.90;;;;;;5069262;28;20463;-59
2021/05/12 00:03:14;;;;;;;25.13;22.47;;;16.40;99.90;;;;;;5071157;28;20213;-58
2021/05/12 00:05:39;;;;;;;26.40;23.37;;;16.40;99.90;;;;;;5070321;28;20177;-58
2021/05/12 00:08:05;;;;;;;25.57;22.97;;;16.40;99.90;;;;;;5068094;28;20188;-59
2021/05/12 00:10:30;;;;;;;24.57;21.97;;;16.50;99.90;;;;;;5068371;28;20566;-58
2021/05/12 00:12:56;;;;;;;22.97;20.67;;;16.40;99.90;;;;;;5068245;28;20190;-59
2021/05/12 00:15:24;;;;;;;24.70;21.77;;;16.40;99.90;;;;;;5069223;28;20228;-58
2021/05/12 00:17:51;;;;;;;23.93;21.43;;;16.40;99.90;;;;;;5068115;28;20836;-58
2021/05/12 00:20:24;;;;;;;23.60;20.90;;;16.40;99.90;;;;;;5067853;28;20430;-57
2021/05/12 00:23:09;;;;;;;22.83;20.53;;;16.40;99.90;;;;;;5069254;28;21105;-58
2021/05/12 00:25:34;;;;;;;22.93;20.73;;;16.30;99.90;;;;;;5066314;28;20906;-59
2021/05/12 00:28:00;;;;;;;23.33;21.03;;;16.40;99.90;;;;;;5065508;28;20433;-57
2021/05/12 00:30:26;;;;;;;23.30;20.90;;;16.40;99.90;;;;;;5068066;28;20208;-58
2021/05/12 00:32:52;;;;;;;23.93;21.47;;;16.30;99.90;;;;;;5067382;28;20209;-57
2021/05/12 00:35:17;;;;;;;22.87;20.57;;;16.30;99.90;;;;;;5068025;28;20593;-57
2021/05/12 00:37:43;;;;;;;17.90;16.07;;;16.40;99.90;;;;;;5068155;28;20546;-59
2021/05/12 00:40:12;;;;;;;17.50;15.80;;;16.40;99.90;;;;;;5064927;28;20210;-58
2021/05/12 00:42:37;;;;;;;18.00;15.90;;;16.30;99.90;;;;;;5067096;28;20439;-59
2021/05/12 00:45:10;;;;;;;15.50;13.90;;;16.20;99.90;;;;;;5067240;28;20550;-59
2021/05/12 00:47:35;;;;;;;14.87;13.30;;;16.20;99.90;;;;;;5068088;28;20172;-58
2021/05/12 00:50:03;;;;;;;14.60;13.30;;;16.30;99.90;;;;;;5067242;28;20750;-60
2021/05/12 00:52:29;;;;;;;14.70;13.30;;;16.20;99.90;;;;;;5067822;28;20602;-58
2021/05/12 00:54:54;;;;;;;14.60;13.20;;;16.30;99.90;;;;;;5068004;28;20508;-57
2021/05/12 00:57:21;;;;;;;14.20;12.73;;;16.20;99.90;;;;;;5067290;28;20569;-58
2021/05/12 00:59:49;;;;;;;12.73;11.53;;;16.20;99.90;;;;;;5067621;28;20201;-57
2021/05/12 01:02:15;;;;;;;12.60;11.40;;;16.20;99.90;;;;;;5068041;28;20793;-55
2021/05/12 01:04:41;;;;;;;13.73;12.43;;;16.30;99.90;;;;;;5067008;28;20926;-56
2021/05/12 01:07:07;;;;;;;14.10;12.63;;;16.20;99.90;;;;;;5077018;28;20452;-58
2021/05/12 01:09:32;;;;;;;13.70;12.40;;;16.20;99.90;;;;;;5077675;28;20782;-56
2021/05/12 01:11:58;;;;;;;14.33;12.83;;;16.10;99.90;;;;;;5067055;28;20203;-58
2021/05/12 01:14:25;;;;;;;14.20;12.90;;;16.10;99.90;;;;;;5068447;28;20183;-54
2021/05/12 01:16:51;;;;;;;15.27;13.67;;;16.00;99.90;;;;;;5066849;28;20211;-57
2021/05/12 01:19:17;;;;;;;15.67;14.07;;;16.00;99.90;;;;;;5074940;28;20443;-57
2021/05/12 01:21:43;;;;;;;16.50;14.80;;;16.00;99.90;;;;;;5079240;28;20938;-58
2021/05/12 01:24:09;;;;;;;16.43;14.73;;;15.90;99.90;;;;;;5073953;28;20456;-58
2021/05/12 01:26:35;;;;;;;17.23;15.50;;;15.90;99.90;;;;;;5077878;28;20474;-57
2021/05/12 01:29:02;;;;;;;19.70;15.60;;;15.80;99.90;;;;;;5066847;28;20972;-57
2021/05/12 01:31:40;;;;;;;18.30;15.70;;;15.90;99.90;;;;;;5078932;28;20427;-58
2021/05/12 01:34:07;;;;;;;20.53;17.17;;;15.90;99.90;;;;;;5067989;28;20431;-56
2021/05/12 01:36:35;;;;;;;19.77;17.63;;;15.80;99.90;;;;;;5081988;28;20463;-53
2021/05/12 01:39:01;;;;;;;19.90;17.00;;;15.90;99.90;;;;;;5068806;28;20465;-58
2021/05/12 01:41:28;;;;;;;21.73;17.90;;;15.80;99.90;;;;;;5067486;28;20431;-57
2021/05/12 01:43:54;;;;;;;20.90;18.57;;;15.80;99.90;;;;;;5074538;28;20413;-58
2021/05/12 01:46:20;;;;;;;22.77;19.73;;;15.80;99.90;;;;;;5067180;28;21006;-58
2021/05/12 01:48:46;;;;;;;21.70;19.07;;;15.80;99.90;;;;;;5066783;28;20474;-57
2021/05/12 01:51:13;;;;;;;24.93;19.93;;;15.70;99.90;;;;;;5081434;28;20180;-57
2021/05/12 01:53:41;;;;;;;20.67;18.47;;;15.60;99.90;;;;;;5071174;28;20438;-56
2021/05/12 01:56:08;;;;;;;22.60;19.07;;;15.60;99.90;;;;;;5081383;28;20753;-57
2021/05/12 01:58:34;;;;;;;23.27;20.00;;;15.60;99.90;;;;;;5071667;28;20794;-58
2021/05/12 02:01:01;;;;;;;25.73;20.37;;;15.60;99.90;;;;;;5068777;28;20471;-57
2021/05/12 02:03:26;;;;;;;24.00;21.10;;;15.60;99.90;;;;;;5075225;28;20180;-56
2021/05/12 02:05:53;;;;;;;24.33;20.73;;;15.60;99.90;;;;;;5073842;28;20539;-59
2021/05/12 02:08:21;;;;;;;26.80;20.73;;;15.60;99.90;;;;;;5078927;28;20178;-59
2021/05/12 02:10:48;;;;;;;27.37;21.20;;;15.60;99.90;;;;;;5074587;28;20442;-58
2021/05/12 02:13:14;;;;;;;26.13;21.50;;;15.60;99.90;;;;;;5077630;28;20438;-58
2021/05/12 02:15:41;;;;;;;25.33;21.20;;;15.60;99.90;;;;;;5069681;28;20471;-57
2021/05/12 02:18:07;;;;;;;26.63;22.43;;;15.60;99.90;;;;;;5070771;28;20427;-59
2021/05/12 02:20:34;;;;;;;26.90;22.03;;;15.50;99.90;;;;;;5071952;28;20423;-59
2021/05/12 02:23:02;;;;;;;23.07;20.03;;;15.50;99.90;;;;;;5059800;28;20200;-59
2021/05/12 02:25:28;;;;;;;24.93;21.00;;;15.50;99.90;;;;;;5070023;28;20766;-59
2021/05/12 02:27:54;;;;;;;23.43;20.90;;;15.50;99.90;;;;;;5083774;28;20433;-58
2021/05/12 02:30:21;;;;;;;26.37;21.83;;;15.50;99.90;;;;;;5070926;28;20189;-57
2021/05/12 02:32:46;;;;;;;26.27;21.80;;;15.50;99.90;;;;;;5071644;28;20894;-58
2021/05/12 02:35:14;;;;;;;29.67;20.90;;;15.50;99.90;;;;;;5068234;28;20481;-56
2021/05/12 02:37:40;;;;;;;28.40;22.57;;;15.50;99.90;;;;;;5069702;28;20212;-58
2021/05/12 02:40:09;;;;;;;25.30;21.93;;;15.40;99.90;;;;;;5068684;28;20444;-58
2021/05/12 02:42:34;;;;;;;24.47;21.10;;;15.40;99.90;;;;;;5085153;28;20209;-58
2021/05/12 02:45:00;;;;;;;26.77;21.73;;;15.50;99.90;;;;;;5068053;28;20534;-57
2021/05/12 02:47:25;;;;;;;23.93;20.67;;;15.50;99.90;;;;;;5075327;28;20289;-58
2021/05/12 02:49:51;;;;;;;24.07;20.97;;;15.50;99.90;;;;;;5080859;28;20647;-58
2021/05/12 02:52:17;;;;;;;27.23;21.17;;;15.50;99.90;;;;;;5069123;28;20238;-58
2021/05/12 02:54:43;;;;;;;23.93;20.20;;;15.50;99.90;;;;;;5070762;28;20200;-57
2021/05/12 02:57:09;;;;;;;25.50;21.97;;;15.60;99.90;;;;;;5071956;28;20521;-59
2021/05/12 02:59:34;;;;;;;24.83;20.80;;;15.60;99.90;;;;;;5068643;28;20201;-57
2021/05/12 03:02:00;;;;;;;24.87;22.20;;;15.60;99.90;;;;;;5070239;28;20221;-58
2021/05/12 03:04:26;;;;;;;26.30;22.23;;;15.50;99.90;;;;;;5069735;28;20196;-57
2021/05/12 03:06:51;;;;;;;27.37;21.97;;;15.50;99.90;;;;;;5064722;28;20213;-59
2021/05/12 03:09:17;;;;;;;24.93;20.77;;;15.50;99.90;;;;;;5067847;28;20238;-59
2021/05/12 03:11:43;;;;;;;25.60;21.00;;;15.50;99.90;;;;;;5069877;28;20670;-59
2021/05/12 03:14:09;;;;;;;28.03;22.60;;;15.50;99.90;;;;;;5068678;28;20189;-57
2021/05/12 03:16:36;;;;;;;24.23;20.57;;;15.50;98.60;;;;;;5064977;28;20190;-59
2021/05/12 03:19:02;;;;;;;26.63;22.20;;;15.60;99.70;;;;;;5069026;28;20431;-59
2021/05/12 03:21:29;;;;;;;25.90;21.40;;;15.60;96.20;;;;;;5067810;28;20427;-59
2021/05/12 03:23:54;;;;;;;23.70;20.40;;;15.50;99.90;;;;;;5068018;28;20431;-59
2021/05/12 03:26:21;;;;;;;25.40;21.70;;;15.40;99.90;;;;;;5069428;28;20441;-59
2021/05/12 03:28:47;;;;;;;25.37;20.90;;;15.50;99.90;;;;;;5070207;28;20181;-57
2021/05/12 03:31:13;;;;;;;22.73;20.30;;;15.50;99.90;;;;;;5067482;28;20497;-59
2021/05/12 03:33:40;;;;;;;23.70;19.57;;;15.50;94.30;;;;;;5073425;28;20193;-59
2021/05/12 03:36:06;;;;;;;22.53;18.67;;;15.50;92.90;;;;;;5079855;28;20459;-58
2021/05/12 03:38:33;;;;;;;20.80;18.27;;;15.50;92.10;;;;;;5069866;28;20416;-58
2021/05/12 03:40:58;;;;;;;24.70;18.90;;;15.50;92.50;;;;;;5072939;28;20426;-58
2021/05/12 03:43:24;;;;;;;22.13;18.60;;;15.50;95.90;;;;;;5066616;28;20431;-59
2021/05/12 03:45:50;;;;;;;22.03;17.40;;;15.50;95.80;;;;;;5069242;28;20252;-58
2021/05/12 03:48:15;;;;;;;18.57;16.63;;;15.50;90.20;;;;;;5073023;28;20877;-59
2021/05/12 03:50:41;;;;;;;20.83;17.60;;;15.50;91.50;;;;;;5068452;28;20181;-58
2021/05/12 03:53:07;;;;;;;20.87;18.37;;;15.60;83.60;;;;;;5089956;28;20173;-58
2021/05/12 03:55:34;;;;;;;20.53;17.00;;;15.60;87.00;;;;;;5073977;28;20443;-57
2021/05/12 03:57:59;;;;;;;19.70;17.60;;;15.60;90.70;;;;;;5070245;28;20431;-57
2021/05/12 04:00:25;;;;;;;18.97;16.90;;;15.60;90.40;;;;;;5068364;28;20556;-57
2021/05/12 04:02:50;;;;;;;22.13;17.40;;;15.60;90.00;;;;;;5070202;28;20181;-58
2021/05/12 04:05:17;;;;;;;21.73;17.37;;;15.50;90.70;;;;;;5069664;28;20186;-59
2021/05/12 04:07:43;;;;;;;21.40;17.43;;;15.60;90.50;;;;;;5072959;28;20204;-58
2021/05/12 04:10:10;;;;;;;19.33;16.37;;;15.60;84.40;;;;;;5069097;28;20943;-59
2021/05/12 04:12:37;;;;;;;20.10;16.40;;;15.60;78.80;;;;;;5072808;28;20298;-59
2021/05/12 04:15:04;;;;;;;19.90;15.13;;;15.60;77.20;;;;;;5068527;28;20433;-58
2021/05/12 04:17:31;;;;;;;18.67;15.97;;;15.60;69.70;;;;;;5070989;28;20462;-59
2021/05/12 04:19:56;;;;;;;17.60;15.10;;;15.60;71.10;;;;;;5069681;28;20609;-59
2021/05/12 04:22:22;;;;;;;16.80;13.53;;;15.70;70.10;;;;;;5078379;28;20508;-57
2021/05/12 04:24:49;;;;;;;16.17;14.47;;;15.60;76.80;;;;;;5069521;28;20186;-58
2021/05/12 04:27:14;;;;;;;16.87;13.47;;;15.60;83.20;;;;;;5077919;28;20549;-59
2021/05/12 04:29:40;;;;;;;15.47;13.77;;;15.70;79.60;;;;;;5070377;28;20549;-59
2021/05/12 04:32:06;;;;;;;18.57;13.37;;;15.70;78.10;;;;;;5069108;28;20205;-59
2021/05/12 04:34:32;;;;;;;16.33;13.57;;;15.70;82.50;;;;;;5075740;28;20186;-58
2021/05/12 04:36:58;;;;;;;13.50;11.87;;;15.60;82.40;;;;;;5069471;28;20462;-59
2021/05/12 04:39:24;;;;;;;14.50;12.13;;;15.70;80.30;;;;;;5076432;28;20912;-58
2021/05/12 04:41:49;;;;;;;14.23;12.80;;;15.70;66.00;;;;;;5079398;28;20180;-57
2021/05/12 04:44:15;;;;;;;13.90;11.97;;;15.70;62.80;;;;;;5065383;28;20196;-58
2021/05/12 04:46:43;;;;;;;14.80;12.10;;;15.80;52.80;;;;;;5076222;28;20648;-57
2021/05/12 04:49:09;;;;;;;15.40;12.20;;;15.80;51.40;;;;;;5070062;28;20177;-59
2021/05/12 04:51:35;;;;;;;15.57;12.50;;;15.70;62.00;;;;;;5082073;28;20536;-58
2021/05/12 04:54:05;;;;;;;14.67;12.60;;;15.80;59.40;;;;;;5080734;28;20422;-65
2021/05/12 04:56:31;;;;;;;15.03;11.50;;;15.80;58.70;;;;;;5068640;28;20466;-62
2021/05/12 04:58:57;;;;;;;15.43;12.00;;;15.80;58.00;;;;;;5077207;28;20439;-63
2021/05/12 05:01:23;;;;;;;13.17;11.27;;;15.90;58.60;;;;;;5076609;28;20469;-63
2021/05/12 05:03:49;;;;;;;16.57;11.17;;;15.90;55.90;;;;;;5080520;28;20181;-63
2021/05/12 05:06:15;;;;;;;11.97;10.67;;;15.90;51.50;;;;;;5072651;28;20499;-62
2021/05/12 05:08:40;;;;;;;12.40;10.97;;;16.00;49.50;;;;;;5068140;28;20616;-62
2021/05/12 05:11:06;;;;;;;12.30;10.40;;;16.00;45.50;;;;;;5084578;28;20184;-62
2021/05/12 05:13:31;;;;;;;13.37;11.43;;;16.10;43.10;;;;;;5089227;28;20209;-62
2021/05/12 05:15:57;;;;;;;12.60;11.00;;;16.10;45.70;;;;;;5070362;28;20218;-63
2021/05/12 05:18:23;;;;;;;12.33;10.20;;;16.10;48.80;;;;;;5068648;28;20250;-63
2021/05/12 05:20:49;;;;;;;12.40;11.10;;;16.20;46.70;;;;;;5067322;28;20609;-62
2021/05/12 05:23:14;;;;;;;12.50;10.40;;;16.30;39.40;;;;;;5084190;28;20276;-62
2021/05/12 05:25:40;;;;;;;11.80;9.97;;;16.40;37.80;;;;;;5073890;28;20522;-62
2021/05/12 05:28:05;;;;;;;11.73;10.20;;;16.50;23.50;;;;;;5067961;28;20195;-63
2021/05/12 05:30:31;;;;;;;9.77;8.77;;;16.50;20.30;;;;;;5067814;28;20204;-63
2021/05/12 05:33:01;;;;;;;10.63;9.53;;;16.50;25.80;;;;;;5068779;28;20188;-60
2021/05/12 05:35:26;;;;;;;12.93;10.07;;;16.60;30.00;;;;;;5071189;28;20186;-59
2021/05/12 05:37:52;;;;;;;13.13;10.13;;;16.50;24.00;;;;;;5092166;28;20925;-59
2021/05/12 05:40:18;;;;;;;12.60;9.93;;;16.60;20.30;;;;;;5080820;28;20186;-59
2021/05/12 05:42:44;;;;;;;10.73;9.60;;;16.50;27.10;;;;;;5091447;28;20199;-59
2021/05/12 05:45:09;;;;;;;10.70;9.20;;;16.50;27.90;;;;;;5088622;28;20211;-60
2021/05/12 05:47:35;;;;;;;12.20;10.10;;;16.60;25.60;;;;;;5084780;28;20257;-59
2021/05/12 05:50:02;;;;;;;10.40;9.23;;;16.60;20.30;;;;;;5079679;28;20433;-59
2021/05/12 05:52:28;;;;;;;11.00;9.80;;;16.60;21.10;;;;;;5072640;28;20175;-59
2021/05/12 05:54:53;;;;;;;11.97;10.63;;;16.60;21.70;;;;;;5078077;28;20926;-59
2021/05/12 05:57:19;;;;;;;10.80;9.70;;;16.50;17.20;;;;;;5074403;28;20204;-59
2021/05/12 05:59:45;;;;;;;10.67;9.47;;;16.60;17.00;;;;;;5069164;28;20278;-65
2021/05/12 06:02:10;;;;;;;11.97;10.63;;;16.60;18.40;;;;;;5071969;28;20184;-65
2021/05/12 06:04:36;;;;;;;12.53;11.23;;;16.60;19.80;;;;;;5089867;28;20191;-64
2021/05/12 06:07:02;;;;;;;11.67;10.40;;;16.50;21.50;;;;;;5078700;28;20542;-64
2021/05/12 06:09:28;;;;;;;13.27;10.80;;;16.50;21.40;;;;;;5078569;28;20428;-65
2021/05/12 06:11:54;;;;;;;13.23;10.87;;;16.50;25.20;;;;;;5078697;28;20791;-64
2021/05/12 06:14:20;;;;;;;12.63;11.33;;;16.50;24.80;;;;;;5071141;28;20861;-65
2021/05/12 06:16:50;;;;;;;12.40;11.10;;;16.50;24.00;;;;;;5070949;28;20559;-65
2021/05/12 06:19:15;;;;;;;16.10;10.93;;;16.40;26.00;;;;;;5069456;28;20436;-65
2021/05/12 06:21:41;;;;;;;13.67;11.43;;;16.50;26.00;;;;;;5071161;28;20513;-64
2021/05/12 06:24:07;;;;;;;15.03;12.17;;;16.40;31.00;;;;;;5070915;28;20187;-61
2021/05/12 06:26:35;;;;;;;13.23;11.77;;;16.30;35.90;;;;;;5071226;28;20199;-60
2021/05/12 06:29:00;;;;;;;15.47;13.10;;;16.40;36.60;;;;;;5070946;28;20793;-60
2021/05/12 06:31:26;;;;;;;13.87;12.47;;;16.40;33.90;;;;;;5071022;28;20521;-60
2021/05/12 06:33:53;;;;;;;14.37;12.43;;;16.50;27.90;;;;;;5073306;28;20630;-59
2021/05/12 06:36:19;;;;;;;15.40;12.37;;;16.50;28.00;;;;;;5077960;28;20204;-60
2021/05/12 06:38:45;;;;;;;14.10;12.60;;;16.50;24.40;;;;;;5071336;28;20441;-59
2021/05/12 06:41:10;;;;;;;14.93;12.60;;;16.50;26.30;;;;;;5073873;28;20175;-59
2021/05/12 06:43:36;;;;;;;17.30;12.67;;;16.50;30.10;;;;;;5079125;28;20456;-60
2021/05/12 06:46:02;;;;;;;14.40;12.63;;;16.60;25.80;;;;;;5082531;28;20187;-60
2021/05/12 06:48:27;;;;;;;15.30;13.03;;;16.40;22.20;;;;;;5061753;28;20191;-64
2021/05/12 06:50:56;;;;;;;14.90;12.30;;;16.40;29.40;;;;;;5052431;28;20206;-60
2021/05/12 06:53:28;;;;;;;17.67;13.63;;;16.30;35.20;;;;;;5050825;28;20533;-61
2021/05/12 06:55:55;;;;;;;17.40;13.53;;;16.20;39.80;;;;;;5052348;28;20461;-62
2021/05/12 06:58:21;;;;;;;17.10;13.13;;;16.10;39.80;;;;;;5066139;28;20405;-60
2021/05/12 07:00:48;;;;;;;16.63;13.27;;;16.00;49.50;;;;;;5068664;28;20457;-63
2021/05/12 07:03:14;;;;;;;16.70;13.40;;;16.00;49.20;;;;;;5071118;28;20417;-66
2021/05/12 07:05:40;;;;;;;17.07;15.17;;;16.00;52.10;;;;;;5071533;28;20834;-61
2021/05/12 07:08:05;;;;;;;18.07;15.40;;;15.90;58.50;;;;;;5070769;28;20683;-64
2021/05/12 07:10:31;;;;;;;16.80;14.53;;;15.80;62.10;;;;;;5070088;28;20660;-59
2021/05/12 07:12:57;;;;;;;18.37;15.33;;;15.80;63.70;;;;;;5071207;28;20722;-60
2021/05/12 07:15:23;;;;;;;18.10;15.90;;;15.80;67.10;;;;;;5071310;28;20170;-60
2021/05/12 07:17:51;;;;;;;22.70;15.60;;;15.80;73.90;;;;;;5063580;28;20466;-60
2021/05/12 07:20:17;;;;;;;19.87;16.03;;;15.70;82.70;;;;;;5058230;28;20210;-60
2021/05/12 07:22:43;;;;;;;20.33;16.77;;;15.70;88.50;;;;;;5071223;28;20454;-60
2021/05/12 07:25:09;;;;;;;20.00;16.33;;;15.70;94.30;;;;;;5070857;28;20177;-60
2021/05/12 07:27:35;;;;;;;16.93;14.77;;;15.70;98.40;;;;;;5070920;28;20499;-60
2021/05/12 07:30:01;;;;;;;20.93;15.60;;;15.80;92.90;;;;;;5070883;28;20425;-64
2021/05/12 07:32:27;;;;;;;19.77;15.80;;;15.90;92.80;;;;;;5070625;28;20462;-64
2021/05/12 07:34:52;;;;;;;21.77;16.07;;;16.00;71.10;;;;;;5076190;28;20193;-61
2021/05/12 07:37:19;;;;;;;17.30;14.90;;;16.10;65.80;;;;;;5070990;28;20947;-63
2021/05/12 07:39:45;;;;;;;22.37;16.83;;;16.20;63.90;;;;;;5070539;28;20187;-60
2021/05/12 07:42:12;;;;;;;19.03;15.63;;;16.20;60.10;;;;;;5070012;28;20435;-60
2021/05/12 07:44:38;;;;;;;19.07;16.77;;;16.30;60.20;;;;;;5060615;28;20195;-63
2021/05/12 07:47:03;;;;;;;18.70;16.30;;;16.40;52.10;;;;;;5071679;28;20464;-65
2021/05/12 07:49:29;;;;;;;18.03;15.53;;;16.40;51.30;;;;;;5070140;28;20179;-61
2021/05/12 07:51:55;;;;;;;20.00;16.27;;;16.50;49.40;;;;;;5076613;28;20180;-63
2021/05/12 07:54:21;;;;;;;17.63;15.73;;;16.60;38.00;;;;;;5077066;28;20175;-63
2021/05/12 07:56:47;;;;;;;18.37;15.40;;;16.60;40.30;;;;;;5079969;28;20518;-65
2021/05/12 07:59:15;;;;;;;18.97;16.70;;;16.70;32.70;;;;;;5078547;28;20206;-63
2021/05/12 08:01:43;;;;;;;17.80;15.23;;;16.70;30.80;;;;;;5069734;28;20851;-60
2021/05/12 08:04:09;;;;;;;16.53;14.83;;;16.80;26.90;;;;;;5070029;28;20427;-60
2021/05/12 08:06:34;;;;;;;18.60;16.60;;;16.90;25.80;;;;;;5076118;28;20521;-60
2021/05/12 08:09:02;;;;;;;17.90;16.00;;;17.00;25.80;;;;;;5068343;28;20194;-60
2021/05/12 08:11:28;;;;;;;18.53;15.97;;;17.20;19.20;;;;;;5068092;28;20183;-64
2021/05/12 08:13:54;;;;;;;18.90;16.03;;;17.40;13.20;;;;;;5071040;28;20437;-60
2021/05/12 08:16:20;;;;;;;18.53;16.60;;;17.50;1.00;;;;;;5081253;28;20541;-60
2021/05/12 08:18:46;;;;;;;16.37;14.67;;;17.60;1.00;;;;;;5056422;28;20651;-60
2021/05/12 08:21:11;;;;;;;19.40;16.23;;;17.60;1.00;;;;;;5060141;28;20212;-60
2021/05/12 08:23:37;;;;;;;18.00;16.10;;;17.50;1.00;;;;;;5072006;28;20407;-59
2021/05/12 08:26:03;;;;;;;19.07;16.37;;;17.50;1.00;;;;;;5068888;28;20177;-59
2021/05/12 08:28:28;;;;;;;20.67;18.47;;;17.20;5.60;;;;;;5071189;28;20304;-60
2021/05/12 08:30:56;;;;;;;18.30;16.40;;;17.10;3.60;;;;;;5078691;28;20686;-61
2021/05/12 08:33:23;;;;;;;16.97;15.30;;;17.00;14.10;;;;;;5068954;28;20822;-61
2021/05/12 08:35:48;;;;;;;17.43;15.70;;;17.00;16.90;;;;;;5079718;28;20867;-61
2021/05/12 08:38:17;;;;;;;19.43;16.23;;;16.90;19.20;;;;;;5074263;28;20436;-60
2021/05/12 08:40:44;;;;;;;16.97;15.30;;;16.90;20.90;;;;;;5066665;28;20194;-61
2021/05/12 08:43:11;;;;;;;18.53;16.70;;;16.90;26.00;;;;;;5066507;28;20426;-61
2021/05/12 08:45:38;;;;;;;19.07;17.07;;;17.00;25.00;;;;;;5065797;28;20978;-60
2021/05/12 08:48:10;;;;;;;22.27;17.40;;;17.10;18.00;;;;;;5069048;28;20434;-60
2021/05/12 08:50:37;;;;;;;19.43;17.20;;;17.10;5.90;;;;;;5067919;28;20943;-61
2021/05/12 08:53:03;;;;;;;19.23;17.20;;;17.00;9.10;;;;;;5071294;28;20431;-60
2021/05/12 08:55:30;;;;;;;21.50;19.30;;;16.90;9.60;;;;;;5079221;28;20432;-62
2021/05/12 08:57:56;;;;;;;19.93;17.57;;;16.80;12.90;;;;;;5071143;28;20471;-61
2021/05/12 09:00:22;;;;;;;17.97;16.17;;;16.70;17.10;;;;;;5067008;28;20466;-61
2021/05/12 09:02:47;;;;;;;18.37;16.47;;;16.70;17.70;;;;;;5084344;28;20183;-61
2021/05/12 09:05:13;;;;;;;16.67;15.00;;;16.80;10.00;;;;;;5079206;28;20414;-60
2021/05/12 09:07:39;;;;;;;17.63;15.83;;;16.80;11.10;;;;;;5077666;28;20179;-61
2021/05/12 09:10:06;;;;;;;16.33;14.70;;;16.90;9.50;;;;;;5075080;28;20804;-61
2021/05/12 09:12:47;;;;;;;14.73;13.33;;;17.00;1.00;;;;;;5086962;28;20190;-60
2021/05/12 09:15:18;;;;;;;18.30;14.00;;;17.00;1.00;;;;;;5082744;28;20467;-59
2021/05/12 09:17:46;;;;;;;14.63;13.23;;;17.00;1.00;;;;;;5084239;28;20478;-59
2021/05/12 09:20:20;;;;;;;15.53;13.93;;;17.10;1.00;;;;;;5076293;28;20496;-59
2021/05/12 09:22:59;;;;;;;13.03;11.73;;;17.30;1.00;;;;;;5075057;28;20432;-60
2021/05/12 09:25:25;;;;;;;13.17;10.93;;;17.30;1.00;;;;;;5091441;28;20426;-60
2021/05/12 09:27:52;;;;;;;10.10;9.10;;;17.20;1.00;;;;;;5095116;28;20424;-60
2021/05/12 09:30:25;;;;;;;10.53;9.53;;;17.20;1.00;;;;;;5090375;28;20477;-60
2021/05/12 09:32:51;;;;;;;9.43;8.53;;;17.20;1.00;;;;;;5074391;28;20433;-60
2021/05/12 09:35:22;;;;;;;10.70;9.60;;;17.30;1.00;;;;;;5085488;28;20841;-58
2021/05/12 09:37:49;;;;;;;10.83;9.83;;;17.20;1.00;;;;;;5089061;28;20671;-60
2021/05/12 09:40:20;;;;;;;11.40;10.20;;;17.30;1.00;;;;;;5073486;28;20425;-60
2021/05/12 09:42:59;;;;;;;10.47;9.47;;;17.10;1.00;;;;;;5093345;28;20429;-61
2021/05/12 09:45:25;;;;;;;10.73;9.73;;;17.10;1.00;;;;;;5075538;28;20430;-58
2021/05/12 09:47:58;;;;;;;12.67;10.77;;;17.10;1.00;;;;;;5073128;28;20456;-59
2021/05/12 09:50:27;;;;;;;11.70;10.60;;;17.00;1.00;;;;;;5073486;28;20521;-59
2021/05/12 09:52:55;;;;;;;13.50;12.20;;;17.00;1.00;;;;;;5091019;28;20495;-59
2021/05/12 09:55:35;;;;;;;12.30;11.10;;;17.10;1.00;;;;;;5084188;28;20446;-60
2021/05/12 09:58:01;;;;;;;12.33;11.13;;;17.00;1.00;;;;;;5093203;28;20525;-60
2021/05/12 10:00:32;;;;;;;11.17;10.00;;;17.00;1.00;;;;;;5080569;28;20611;-60
2021/05/12 10:03:01;;;;;;;13.30;11.23;;;17.00;1.00;;;;;;5087515;28;20187;-60
2021/05/12 10:05:27;;;;;;;13.07;11.77;;;17.00;1.00;;;;;;5082913;28;20442;-60
2021/05/12 10:07:54;;;;;;;12.67;11.37;;;16.90;1.00;;;;;;5074276;28;20512;-61
2021/05/12 10:10:41;;;;;;;12.83;11.53;;;17.00;1.00;;;;;;5073186;28;21214;-61
2021/05/12 10:13:07;;;;;;;13.60;12.20;;;16.90;1.00;;;;;;5070437;28;20437;-60
2021/05/12 10:15:33;;;;;;;14.00;12.50;;;16.80;1.00;;;;;;5072447;28;20440;-60
2021/05/12 10:18:00;;;;;;;14.13;12.63;;;16.70;1.00;;;;;;5074684;28;20450;-60
2021/05/12 10:20:26;;;;;;;15.20;13.07;;;16.70;1.00;;;;;;5070032;28;20183;-60
2021/05/12 10:22:54;;;;;;;15.10;13.50;;;16.80;1.00;;;;;;5070111;28;20423;-60
2021/05/12 10:25:21;;;;;;;16.20;14.50;;;16.80;1.00;;;;;;5070058;28;20187;-60
2021/05/12 10:27:49;;;;;;;14.63;13.23;;;16.70;1.00;;;;;;5069155;28;20425;-60
2021/05/12 10:30:15;;;;;;;16.23;14.03;;;16.90;1.00;;;;;;5071327;28;20453;-60
2021/05/12 10:32:53;;;;;;;15.37;13.77;;;16.90;1.00;;;;;;5071495;28;20425;-60
2021/05/12 10:35:33;;;;;;;15.10;13.50;;;16.90;1.00;;;;;;5077641;28;20433;-60
2021/05/12 10:37:59;;;;;;;14.57;13.07;;;16.90;1.00;;;;;;5090801;28;20464;-60
2021/05/12 10:40:28;;;;;;;15.13;13.30;;;17.00;1.00;;;;;;5078695;28;20504;-60
2021/05/12 10:43:10;;;;;;;13.20;11.80;;;17.10;1.00;;;;;;5074186;28;20436;-60
2021/05/12 10:45:58;;;;;;;15.90;13.97;;;17.10;1.00;;;;;;5070665;28;20494;-60
2021/05/12 10:49:03;;;;;;;16.33;14.30;;;17.10;1.00;;;;;;5062260;28;20436;-60
2021/05/12 10:51:33;;;;;;;16.53;14.20;;;16.90;1.00;;;;;;5060774;28;20429;-60
2021/05/12 10:54:03;;;;;;;17.10;15.30;;;17.00;1.00;;;;;;5079677;28;20478;-60
2021/05/12 10:56:37;;;;;;;17.17;15.33;;;16.90;1.00;;;;;;5088392;28;20468;-59
2021/05/12 10:59:05;;;;;;;16.20;14.30;;;16.80;1.00;;;;;;5081777;28;20430;-60
2021/05/12 11:01:42;;;;;;;18.33;16.50;;;16.70;1.00;;;;;;5070979;28;20481;-61
2021/05/12 11:04:10;;;;;;;16.80;15.00;;;16.60;1.00;;;;;;5055904;28;20427;-61
2021/05/12 11:06:35;;;;;;;17.77;15.87;;;16.50;1.00;;;;;;5061286;28;20974;-64
2021/05/12 11:09:09;;;;;;;17.80;16.00;;;16.50;1.00;;;;;;5065524;28;20427;-64
2021/05/12 11:11:53;;;;;;;16.60;14.93;;;16.50;1.80;;;;;;5073282;28;20200;-64
2021/05/12 11:14:26;;;;;;;15.93;14.30;;;16.40;3.40;;;;;;5075220;28;20518;-63
2021/05/12 11:17:11;;;;;;;16.60;13.73;;;16.40;5.80;;;;;;5069382;28;20472;-64
2021/05/12 11:19:40;;;;;;;15.40;13.87;;;16.40;6.30;;;;;;5072206;28;20418;-65
2021/05/12 11:22:28;;;;;;;16.00;13.80;;;16.40;6.10;;;;;;5064513;28;20434;-64
2021/05/12 11:25:00;;;;;;;16.57;14.03;;;16.40;10.50;;;;;;5055080;28;20849;-60
2021/05/12 11:31:09;;;;;;;15.27;13.70;;;16.40;8.10;;;;;;5052630;28;20758;-64
2021/05/12 11:32:48;;;;;;;17.23;14.23;;;16.30;16.00;;;;;;5048972;28;20431;-59
2021/05/12 11:35:15;;;;;;;16.90;15.10;;;16.30;26.50;;;;;;5048959;28;20413;-62
2021/05/12 11:37:44;;;;;;;17.83;15.93;;;16.30;31.20;;;;;;5053620;28;20290;-64
2021/05/12 11:40:10;;;;;;;18.80;15.77;;;16.20;28.80;;;;;;5068836;28;20427;-61
2021/05/12 11:42:36;;;;;;;17.07;15.27;;;16.10;46.60;;;;;;5069241;28;20420;-66
2021/05/12 11:45:07;;;;;;;19.87;15.60;;;16.10;56.90;;;;;;5069016;28;20416;-61
2021/05/12 11:47:34;;;;;;;22.27;16.30;;;16.00;67.70;;;;;;5069605;28;20243;-61
2021/05/12 11:49:59;;;;;;;22.10;17.47;;;15.80;68.00;;;;;;5068886;28;20424;-60
2021/05/12 11:52:32;;;;;;;19.30;16.00;;;15.60;82.60;;;;;;5068948;28;20426;-61
2021/05/12 11:55:06;;;;;;;19.50;17.37;;;15.50;97.70;;;;;;5069107;28;20837;-60
2021/05/12 11:57:32;;;;;;;21.00;18.50;;;15.40;99.90;;;;;;5068416;28;20463;-61
2021/05/12 12:00:05;;;;;;;22.77;18.97;;;15.30;99.90;;;;;;5068701;28;20555;-61
2021/05/12 12:02:31;;;;;;;24.60;20.00;;;15.10;99.90;;;;;;5073293;28;20169;-64
2021/05/12 12:05:02;;;;;;;28.33;20.57;;;15.00;99.90;;;;;;5069086;28;20489;-65
2021/05/12 12:07:35;;;;;;;23.27;18.43;;;15.00;99.90;;;;;;5070011;28;20193;-61
2021/05/12 12:10:03;;;;;;;24.33;19.17;;;14.90;99.90;;;;;;5069554;28;20789;-64
2021/05/12 12:12:28;;;;;;;27.10;20.57;;;14.80;99.90;;;;;;5072625;28;20415;-62
2021/05/12 12:15:07;;;;;;;25.20;20.00;;;14.70;99.90;;;;;;5077148;28;20431;-63
2021/05/12 12:17:33;;;;;;;26.97;21.00;;;14.70;99.90;;;;;;5083352;28;20210;-65
2021/05/12 12:20:06;;;;;;;26.40;21.30;;;14.70;99.90;;;;;;5082797;28;20402;-65
2021/05/12 12:22:33;;;;;;;32.43;25.27;;;14.70;99.90;;;;;;5085610;28;20674;-65
2021/05/12 12:25:15;;;;;;;31.53;24.37;;;14.70;99.90;;;;;;5067826;28;20421;-64
2021/05/12 12:27:42;;;;;;;33.63;25.70;;;14.70;99.90;;;;;;5068384;28;20411;-63
2021/05/12 12:30:09;;;;;;;35.43;26.07;;;14.80;99.90;;;;;;5072426;28;20423;-62
2021/05/12 12:32:36;;;;;;;39.57;27.97;;;14.90;99.90;;;;;;5074717;28;20418;-63
2021/05/12 12:35:02;;;;;;;34.23;23.47;;;14.90;99.90;;;;;;5081994;28;20434;-67